Time;durP1;ratioP1;P1;durP2;ratioP2;P2;SDS_P1;SDS_P2;PMS_P1;PMS_P2;Temp;Humidity;BMP_temperature;BMP_pressure;BME280_temperature;BME280_humidity;BME280_pressure;Samples;Min_cycle;Max_cycle;Signal;HPM_P1;HPM_P2
2022/08/28 00:01:30;;;;;;;10.68;6.95;;;;;;;21.03;nan;94870.41;5060882;28;20202;-66
2022/08/28 00:03:58;;;;;;;15.18;7.28;;;;;;;21.04;nan;94877.19;5060548;28;20709;-67
2022/08/28 00:06:25;;;;;;;11.00;5.88;;;;;;;21.22;nan;94875.81;5059802;28;20222;-67
2022/08/28 00:08:52;;;;;;;11.38;6.53;;;;;;;21.44;nan;94869.75;5062305;28;20213;-66
2022/08/28 00:11:19;;;;;;;12.90;6.00;;;;;;;21.49;nan;94865.06;5057758;28;20202;-66
2022/08/28 00:13:48;;;;;;;16.55;6.53;;;;;;;21.49;nan;94862.47;5061718;28;20305;-66
2022/08/28 00:16:16;;;;;;;12.18;6.97;;;;;;;21.32;nan;94865.53;5059330;28;20235;-66
2022/08/28 00:18:44;;;;;;;6.88;6.18;;;;;;;21.37;nan;94861.66;5058363;28;20679;-67
2022/08/28 00:21:11;;;;;;;17.80;7.40;;;;;;;21.61;nan;94865.81;5058788;28;20237;-66
2022/08/28 00:23:38;;;;;;;11.30;6.28;;;;;;;21.73;nan;94865.66;5060150;28;20215;-66
2022/08/28 00:26:05;;;;;;;10.30;6.25;;;;;;;21.60;nan;94872.75;5060433;28;20233;-66
2022/08/28 00:28:31;;;;;;;17.45;7.10;;;;;;;21.74;nan;94876.84;5059484;28;20776;-67
2022/08/28 00:31:00;;;;;;;10.77;7.68;;;;;;;21.70;nan;94871.09;5059763;28;20684;-67
2022/08/28 00:33:32;;;;;;;12.23;6.68;;;;;;;21.35;nan;94875.66;5059338;28;20201;-66
2022/08/28 00:36:01;;;;;;;20.52;7.20;;;;;;;20.86;nan;94861.34;5059714;28;20292;-66
2022/08/28 00:38:28;;;;;;;10.38;6.55;;;;;;;20.97;nan;94865.69;5061098;28;20218;-66
2022/08/28 00:40:59;;;;;;;16.65;6.93;;;;;;;21.06;nan;94870.13;5059837;28;20294;-67
2022/08/28 00:43:34;;;;;;;12.65;6.70;;;;;;;21.48;nan;94873.75;5059712;28;20646;-66
2022/08/28 00:46:04;;;;;;;11.13;6.30;;;;;;;21.88;nan;94883.47;5057753;28;20206;-66
2022/08/28 00:48:31;;;;;;;9.88;6.88;;;;;;;22.17;nan;94884.56;5059924;28;20214;-68
2022/08/28 00:53:43;;;;;;;13.32;6.68;;;;;;;21.95;nan;94874.28;5055442;28;20254;-68
2022/08/28 00:56:13;;;;;;;8.05;5.65;;;;;;;21.85;nan;94878.53;5059098;28;20635;-66
2022/08/28 00:58:43;;;;;;;14.95;6.85;;;;;;;21.68;nan;94880.72;5056911;28;20318;-66
2022/08/28 01:01:13;;;;;;;13.18;6.53;;;;;;;21.26;nan;94876.38;5057841;28;20389;-66
2022/08/28 01:03:41;;;;;;;14.20;7.22;;;;;;;20.86;nan;94874.25;5056405;28;20206;-66
2022/08/28 01:06:08;;;;;;;9.15;6.65;;;;;;;20.52;nan;94882.94;5059875;28;20232;-67
2022/08/28 01:08:38;;;;;;;14.10;7.03;;;;;;;20.46;nan;94884.22;5058704;28;20266;-67
2022/08/28 01:11:07;;;;;;;15.35;7.53;;;;;;;20.75;nan;94876.03;5059709;28;20298;-67
2022/08/28 01:13:34;;;;;;;7.13;6.43;;;;;;;20.53;nan;94872.50;5061399;28;20209;-66
2022/08/28 01:16:02;;;;;;;8.38;6.53;;;;;;;20.23;nan;94875.59;5063798;28;20206;-67
2022/08/28 01:18:32;;;;;;;9.95;6.38;;;;;;;20.09;nan;94875.78;5063401;28;20249;-67
2022/08/28 01:21:10;;;;;;;15.60;7.18;;;;;;;20.44;nan;94874.94;5064028;28;20198;-67
2022/08/28 01:23:56;;;;;;;12.45;6.22;;;;;;;20.40;nan;94878.69;5061995;28;20209;-67
2022/08/28 01:26:24;;;;;;;9.32;6.63;;;;;;;20.18;nan;94877.69;5064441;28;20221;-65
2022/08/28 01:28:51;;;;;;;17.95;6.30;;;;;;;20.18;nan;94875.09;5061848;28;20206;-67
2022/08/28 01:31:19;;;;;;;11.30;6.40;;;;;;;20.45;nan;94879.19;5063654;28;20300;-68
2022/08/28 01:33:46;;;;;;;12.98;6.43;;;;;;;20.79;nan;94873.09;5062711;28;20216;-67
2022/08/28 01:36:14;;;;;;;15.13;6.38;;;;;;;20.81;nan;94881.53;5063059;28;20224;-66
2022/08/28 01:38:43;;;;;;;8.95;6.85;;;;;;;20.71;nan;94878.84;5062714;28;20624;-66
2022/08/28 01:41:13;;;;;;;13.15;5.65;;;;;;;20.39;nan;94880.47;5062772;28;20218;-65
2022/08/28 01:43:40;;;;;;;7.10;6.22;;;;;;;20.53;nan;94882.84;5065236;28;20985;-66
2022/08/28 01:46:08;;;;;;;8.57;6.45;;;;;;;20.70;nan;94878.97;5062754;28;20233;-67
2022/08/28 01:48:37;;;;;;;10.32;6.40;;;;;;;20.47;nan;94877.31;5064060;28;20198;-66
2022/08/28 01:51:05;;;;;;;8.80;6.57;;;;;;;20.64;nan;94880.25;5062258;28;20222;-67
2022/08/28 01:53:32;;;;;;;8.98;5.72;;;;;;;20.67;nan;94879.19;5062578;28;22516;-66
2022/08/28 01:56:01;;;;;;;6.75;5.60;;;;;;;20.43;nan;94881.88;5062839;28;20682;-66
2022/08/28 01:58:30;;;;;;;14.43;5.90;;;;;;;20.21;nan;94885.22;5063235;28;20233;-67
2022/08/28 02:00:57;;;;;;;11.43;6.03;;;;;;;20.12;nan;94883.28;5062195;28;20356;-66
2022/08/28 02:03:24;;;;;;;10.45;5.93;;;;;;;20.48;nan;94884.13;5061948;28;20207;-67
2022/08/28 02:05:52;;;;;;;8.98;5.65;;;;;;;20.49;nan;94888.34;5062619;28;20225;-67
2022/08/28 02:08:19;;;;;;;8.52;5.85;;;;;;;20.21;nan;94886.97;5062225;28;20250;-66
2022/08/28 02:10:46;;;;;;;11.13;6.60;;;;;;;20.55;nan;94885.28;5062099;28;20564;-65
2022/08/28 02:13:13;;;;;;;17.20;6.63;;;;;;;20.56;nan;94881.75;5063307;28;20233;-67
2022/08/28 02:15:42;;;;;;;8.73;5.70;;;;;;;20.83;nan;94878.84;5061673;28;20206;-66
2022/08/28 02:18:10;;;;;;;8.18;6.47;;;;;;;21.01;nan;94885.19;5062695;28;20226;-65
2022/08/28 02:20:36;;;;;;;14.82;5.93;;;;;;;20.55;nan;94880.13;5063849;28;20278;-66
2022/08/28 02:23:04;;;;;;;10.25;6.00;;;;;;;20.44;nan;94882.69;5064390;28;20267;-64
2022/08/28 02:25:31;;;;;;;8.93;5.72;;;;;;;20.72;nan;94882.25;5061651;28;20205;-66
2022/08/28 02:27:58;;;;;;;7.90;5.97;;;;;;;20.73;nan;94888.25;5063100;28;20361;-67
2022/08/28 02:30:25;;;;;;;13.25;6.38;;;;;;;20.99;nan;94890.47;5061832;28;20267;-66
2022/08/28 02:32:54;;;;;;;14.82;6.25;;;;;;;21.14;nan;94892.81;5063379;28;20236;-65
2022/08/28 02:35:22;;;;;;;12.45;5.75;;;;;;;21.28;nan;94884.84;5061197;28;20275;-67
2022/08/28 02:37:50;;;;;;;8.50;6.18;;;;;;;21.47;nan;94885.03;5061995;28;20310;-67
2022/08/28 02:40:22;;;;;;;12.68;5.60;;;;;;;21.50;nan;94884.78;5062540;28;20210;-66
2022/08/28 02:42:49;;;;;;;9.93;5.50;;;;;;;21.38;nan;94896.09;5062227;28;20225;-67
2022/08/28 02:45:17;;;;;;;10.75;6.40;;;;;;;21.07;nan;94892.44;5058699;28;20608;-66
2022/08/28 02:47:45;;;;;;;13.43;5.90;;;;;;;20.44;nan;94888.69;5059804;28;20210;-67
2022/08/28 02:50:15;;;;;;;15.15;6.10;;;;;;;20.06;nan;94891.47;5060619;28;20263;-67
2022/08/28 02:52:43;;;;;;;16.88;6.45;;;;;;;20.27;nan;94897.66;5057833;28;20206;-66
2022/08/28 02:55:12;;;;;;;10.68;5.90;;;;;;;20.64;nan;94895.75;5062312;28;20202;-68
2022/08/28 02:57:39;;;;;;;19.10;6.38;;;;;;;20.48;nan;94897.03;5058821;28;20221;-67
2022/08/28 03:00:08;;;;;;;14.43;6.95;;;;;;;20.06;nan;94894.06;5061203;28;20209;-67
2022/08/28 03:02:36;;;;;;;11.35;6.07;;;;;;;19.80;nan;94895.94;5060123;28;20365;-66
2022/08/28 03:05:03;;;;;;;11.10;5.65;;;;;;;19.50;nan;94899.00;5059443;28;20202;-67
2022/08/28 03:07:31;;;;;;;8.48;5.85;;;;;;;19.32;nan;94900.25;5060255;28;20217;-67
2022/08/28 03:09:58;;;;;;;12.80;6.25;;;;;;;19.03;nan;94903.13;5060091;28;22565;-67
2022/08/28 03:12:25;;;;;;;11.45;5.80;;;;;;;19.02;nan;94900.66;5059768;28;20206;-66
2022/08/28 03:14:52;;;;;;;10.55;5.93;;;;;;;19.26;nan;94903.28;5060962;28;20202;-66
2022/08/28 03:17:20;;;;;;;10.45;6.70;;;;;;;19.67;nan;94903.75;5059802;28;20243;-66
2022/08/28 03:19:48;;;;;;;7.95;5.72;;;;;;;20.22;nan;94898.94;5061892;28;20538;-67
2022/08/28 03:22:16;;;;;;;16.17;6.15;;;;;;;20.27;nan;94897.66;5059808;28;20230;-66
2022/08/28 03:24:43;;;;;;;11.77;6.30;;;;;;;20.08;nan;94897.34;5062049;28;20190;-66
2022/08/28 03:27:11;;;;;;;15.10;6.50;;;;;;;19.75;nan;94905.81;5059369;28;20383;-66
2022/08/28 03:29:38;;;;;;;13.15;5.60;;;;;;;19.66;nan;94902.13;5062448;28;20649;-66
2022/08/28 03:32:05;;;;;;;9.02;6.45;;;;;;;19.62;nan;94900.69;5062322;28;20205;-66
2022/08/28 03:34:32;;;;;;;7.07;6.28;;;;;;;19.63;nan;94901.50;5061277;28;20209;-66
2022/08/28 03:37:00;;;;;;;11.52;5.97;;;;;;;19.98;nan;94906.72;5061759;28;20275;-66
2022/08/28 03:39:26;;;;;;;22.83;7.07;;;;;;;20.33;nan;94902.34;5062681;28;20210;-66
2022/08/28 03:41:54;;;;;;;7.97;6.20;;;;;;;20.38;nan;94914.94;5059380;28;20596;-66
2022/08/28 03:44:21;;;;;;;8.98;6.68;;;;;;;20.52;nan;94911.34;5061198;28;20715;-67
2022/08/28 03:46:48;;;;;;;11.60;5.88;;;;;;;20.45;nan;94907.56;5060532;28;20206;-66
2022/08/28 03:49:14;;;;;;;9.05;6.78;;;;;;;20.44;nan;94908.50;5061983;28;20221;-66
2022/08/28 03:51:42;;;;;;;14.65;6.32;;;;;;;20.43;nan;94919.78;5060228;28;21114;-66
2022/08/28 03:54:08;;;;;;;14.57;6.95;;;;;;;20.35;nan;94921.13;5059083;28;20224;-65
2022/08/28 03:56:35;;;;;;;12.48;6.60;;;;;;;20.29;nan;94929.31;5083744;22;20692;-66
2022/08/28 03:59:05;;;;;;;10.18;6.88;;;;;;;20.28;nan;94930.28;5007342;28;20227;-66
2022/08/28 04:01:33;;;;;;;12.45;6.55;;;;;;;20.16;nan;94932.91;5007385;28;20203;-66
2022/08/28 04:04:00;;;;;;;18.23;6.05;;;;;;;20.19;nan;94933.53;5007416;28;20214;-66
2022/08/28 04:06:27;;;;;;;17.88;6.85;;;;;;;20.38;nan;94939.00;4996840;28;20231;-66
2022/08/28 04:08:54;;;;;;;16.10;6.20;;;;;;;20.53;nan;94946.56;4988828;28;21869;-66
2022/08/28 04:11:21;;;;;;;12.00;6.72;;;;;;;20.57;nan;94940.19;4989241;28;20212;-66
2022/08/28 04:13:48;;;;;;;13.00;6.68;;;;;;;20.64;nan;94941.41;4989746;28;20212;-66
2022/08/28 04:16:18;;;;;;;12.00;6.53;;;;;;;20.65;nan;94943.88;4990372;28;20204;-67
2022/08/28 04:18:46;;;;;;;10.10;6.10;;;;;;;20.62;nan;94943.28;4989008;28;20646;-66
2022/08/28 04:21:15;;;;;;;16.88;6.75;;;;;;;20.20;nan;94948.06;4988899;28;20692;-66
2022/08/28 04:23:44;;;;;;;18.08;7.97;;;;;;;20.11;nan;94956.47;4989370;28;20209;-66
2022/08/28 04:26:13;;;;;;;10.35;7.18;;;;;;;20.43;nan;94948.16;4988740;28;20208;-66
2022/08/28 04:28:40;;;;;;;11.32;6.80;;;;;;;20.72;nan;94954.56;4989260;28;20306;-66
2022/08/28 04:31:07;;;;;;;17.73;7.38;;;;;;;20.94;nan;94964.09;4986887;28;20212;-66
2022/08/28 04:33:36;;;;;;;13.75;6.85;;;;;;;20.94;nan;94966.69;4988199;28;20200;-66
2022/08/28 04:36:05;;;;;;;10.02;6.60;;;;;;;20.77;nan;94960.22;4987508;28;20211;-66
2022/08/28 04:38:32;;;;;;;13.43;7.15;;;;;;;20.91;nan;94969.50;4987707;28;20224;-66
2022/08/28 04:40:59;;;;;;;11.73;6.93;;;;;;;21.24;nan;94972.13;4986912;28;20208;-66
2022/08/28 04:43:26;;;;;;;11.25;6.80;;;;;;;21.55;nan;94974.91;4987271;28;20200;-66
2022/08/28 04:45:53;;;;;;;23.33;6.90;;;;;;;21.83;nan;94965.81;4989137;28;20200;-67
2022/08/28 04:48:19;;;;;;;12.63;5.90;;;;;;;22.08;nan;94968.09;4988269;28;20208;-67
2022/08/28 04:50:49;;;;;;;14.50;6.05;;;;;;;22.36;nan;94967.53;4988540;28;20207;-67
2022/08/28 04:53:19;;;;;;;11.57;5.72;;;;;;;22.69;nan;94978.66;4989180;28;20205;-67
2022/08/28 04:55:48;;;;;;;16.10;6.28;;;;;;;23.01;nan;94976.81;4988800;28;20346;-67
2022/08/28 04:58:16;;;;;;;13.43;4.82;;;;;;;23.15;nan;94982.63;4988316;28;20236;-66
2022/08/28 05:00:45;;;;;;;12.70;6.00;;;;;;;23.17;nan;94988.50;4987493;28;20590;-66
2022/08/28 05:03:12;;;;;;;11.98;5.38;;;;;;;23.21;nan;94982.13;4988132;28;20221;-66
2022/08/28 05:05:42;;;;;;;12.65;4.35;;;;;;;23.31;nan;94988.16;4988836;28;20243;-66
2022/08/28 05:08:10;;;;;;;16.73;5.60;;;;;;;23.59;nan;94976.28;4988707;28;20653;-67
2022/08/28 05:10:36;;;;;;;10.07;4.60;;;;;;;24.14;nan;94977.47;4987590;28;20698;-67
2022/08/28 05:13:03;;;;;;;8.32;5.70;;;;;;;25.09;nan;94977.56;4988102;28;20255;-68
2022/08/28 05:15:30;;;;;;;13.95;4.93;;;;;;;26.02;nan;94982.63;4988537;28;20258;-67
2022/08/28 05:17:58;;;;;;;9.45;4.78;;;;;;;26.61;nan;94994.28;4988375;28;20223;-66
2022/08/28 05:20:24;;;;;;;10.32;5.15;;;;;;;27.22;nan;94984.78;4988687;28;20303;-67
2022/08/28 05:22:51;;;;;;;18.27;5.50;;;;;;;27.73;nan;94982.09;4988236;28;20623;-66
2022/08/28 05:25:19;;;;;;;13.35;5.15;;;;;;;28.01;nan;94974.03;4989490;28;20211;-66
2022/08/28 05:27:46;;;;;;;10.27;5.38;;;;;;;28.31;nan;94978.69;4988774;28;20226;-67
2022/08/28 05:30:13;;;;;;;14.50;6.72;;;;;;;29.24;nan;94983.56;4988447;28;20594;-67
2022/08/28 05:32:42;;;;;;;9.07;6.15;;;;;;;30.98;nan;94978.72;4987541;28;20232;-67
2022/08/28 05:35:09;;;;;;;6.35;5.80;;;;;;;32.44;nan;94979.66;4989316;28;20205;-67
2022/08/28 05:37:36;;;;;;;11.27;7.28;;;;;;;33.62;nan;94983.44;4990899;28;20209;-67
2022/08/28 05:40:04;;;;;;;11.10;6.18;;;;;;;34.22;nan;94980.03;4989028;28;20220;-67
2022/08/28 05:42:32;;;;;;;7.72;6.55;;;;;;;35.51;nan;94972.66;4988654;28;20204;-67
2022/08/28 05:44:59;;;;;;;10.93;6.22;;;;;;;35.85;nan;94976.03;4988809;28;20881;-68
2022/08/28 05:47:25;;;;;;;12.80;5.60;;;;;;;36.17;nan;94979.53;4988860;28;20353;-67
2022/08/28 05:49:52;;;;;;;9.32;6.88;;;;;;;35.64;nan;94985.81;4989219;28;20204;-67
2022/08/28 05:52:19;;;;;;;6.45;5.85;;;;;;;35.53;nan;94983.81;4987973;28;20216;-67
2022/08/28 05:54:45;;;;;;;8.77;6.68;;;;;;;35.52;nan;94982.19;4988349;28;20271;-67
2022/08/28 05:57:12;;;;;;;7.25;5.82;;;;;;;35.57;nan;94981.59;4988216;28;20247;-67
2022/08/28 05:59:40;;;;;;;10.70;6.32;;;;;;;36.35;nan;94983.16;4991422;28;20228;-67
2022/08/28 06:02:07;;;;;;;9.63;6.70;;;;;;;37.09;nan;94977.16;4991066;28;20290;-67
2022/08/28 06:04:35;;;;;;;11.68;5.95;;;;;;;36.20;nan;94977.28;4992292;28;20208;-67
2022/08/28 06:07:01;;;;;;;15.93;6.07;;;;;;;36.86;nan;94973.47;4992646;28;20246;-68
2022/08/28 06:09:29;;;;;;;8.95;5.90;;;;;;;37.24;nan;94976.00;4991867;28;20736;-65
2022/08/28 06:11:57;;;;;;;10.50;6.50;;;;;;;35.17;nan;94978.16;4991576;28;20326;-68
2022/08/28 06:14:24;;;;;;;9.43;6.22;;;;;;;34.62;nan;94980.16;4991984;28;20219;-64
2022/08/28 06:16:55;;;;;;;13.48;6.20;;;;;;;34.92;nan;94978.78;4991984;28;20662;-67
2022/08/28 06:19:24;;;;;;;12.82;6.43;;;;;;;35.60;nan;94984.63;4991634;28;20236;-67
2022/08/28 06:21:55;;;;;;;15.35;6.85;;;;;;;35.46;nan;94977.72;4991098;28;20266;-67
2022/08/28 06:24:21;;;;;;;11.50;6.85;;;;;;;35.35;nan;94975.75;4990419;28;20213;-67
2022/08/28 06:26:48;;;;;;;15.98;6.88;;;;;;;35.59;nan;94980.34;4991222;28;20232;-68
2022/08/28 06:29:18;;;;;;;15.20;6.35;;;;;;;36.38;nan;94974.75;4991277;28;20212;-67
2022/08/28 06:31:45;;;;;;;16.77;7.63;;;;;;;36.77;nan;94975.56;4990861;28;20204;-67
2022/08/28 06:34:13;;;;;;;13.65;6.72;;;;;;;36.24;nan;94978.50;4991671;28;20212;-67
2022/08/28 06:36:42;;;;;;;16.08;7.28;;;;;;;37.03;nan;94991.25;4990899;28;20212;-67
2022/08/28 06:39:10;;;;;;;23.08;7.25;;;;;;;37.51;nan;94982.69;4991694;28;20244;-68
2022/08/28 06:41:39;;;;;;;13.85;7.50;;;;;;;38.27;nan;94986.75;4990796;28;20701;-67
2022/08/28 06:44:07;;;;;;;9.43;6.90;;;;;;;37.43;nan;94983.78;4990873;28;20223;-67
2022/08/28 06:46:35;;;;;;;13.48;7.28;;;;;;;37.19;nan;94979.31;4991359;28;20627;-67
2022/08/28 06:49:02;;;;;;;24.80;7.63;;;;;;;37.46;nan;94987.81;4992921;28;20204;-67
2022/08/28 06:51:30;;;;;;;12.35;6.60;;;;;;;37.85;nan;94988.47;4990972;28;20208;-66
2022/08/28 06:53:57;;;;;;;14.60;7.15;;;;;;;38.76;nan;94985.66;4990963;28;20212;-66
2022/08/28 06:56:24;;;;;;;13.35;8.18;;;;;;;38.50;nan;94976.22;4990633;28;20212;-67
2022/08/28 06:58:51;;;;;;;22.83;12.60;;;;;;;38.97;nan;94985.13;4990623;28;20236;-67
2022/08/28 07:01:21;;;;;;;20.42;13.02;;;;;;;39.26;nan;94977.31;4991750;28;20204;-67
2022/08/28 07:03:49;;;;;;;16.27;8.70;;;;;;;39.59;nan;94980.22;4990477;28;20211;-67
2022/08/28 07:06:16;;;;;;;27.27;14.45;;;;;;;38.90;nan;94979.09;4990542;28;21739;-67
2022/08/28 07:08:45;;;;;;;18.02;9.07;;;;;;;38.90;nan;94979.09;4990491;28;20262;-66
2022/08/28 07:11:14;;;;;;;16.95;9.27;;;;;;;38.32;nan;94974.44;4990379;28;20239;-67
2022/08/28 07:13:41;;;;;;;15.13;10.80;;;;;;;38.00;nan;94970.31;4992067;28;20874;-67
2022/08/28 07:16:07;;;;;;;11.05;7.22;;;;;;;37.54;nan;94979.59;4991063;28;20226;-67
2022/08/28 07:18:34;;;;;;;16.67;8.82;;;;;;;38.46;nan;94980.34;4990231;28;20251;-67
2022/08/28 07:21:01;;;;;;;15.45;8.70;;;;;;;38.38;nan;94972.69;4990604;28;20766;-66
2022/08/28 07:23:28;;;;;;;14.20;7.30;;;;;;;38.19;nan;94976.44;4990016;28;20682;-66
2022/08/28 07:25:57;;;;;;;18.20;8.85;;;;;;;38.39;nan;94975.13;4989534;28;20271;-66
2022/08/28 07:28:23;;;;;;;12.18;8.80;;;;;;;38.85;nan;94983.50;4989860;28;20286;-68
2022/08/28 07:30:59;;;;;;;23.23;8.15;;;;;;;38.30;nan;94976.50;4989897;28;20280;-67
2022/08/28 07:33:27;;;;;;;24.02;8.23;;;;;;;37.70;nan;94972.91;4989376;28;20211;-66
2022/08/28 07:35:55;;;;;;;11.55;7.57;;;;;;;36.83;nan;94969.41;4988951;28;20266;-67
2022/08/28 07:38:22;;;;;;;14.00;10.02;;;;;;;36.36;nan;94974.19;4990756;28;20212;-66
2022/08/28 07:40:49;;;;;;;13.10;8.93;;;;;;;36.44;nan;94970.47;4989797;28;20208;-66
2022/08/28 07:46:05;;;;;;;14.43;7.70;;;;;;;36.46;nan;94969.22;4989612;28;20292;-64
2022/08/28 07:48:32;;;;;;;16.05;7.63;;;;;;;35.79;nan;94972.38;4989990;28;20218;-65
2022/08/28 07:50:59;;;;;;;13.52;7.57;;;;;;;34.36;nan;94970.38;4990879;28;20219;-66
2022/08/28 07:53:26;;;;;;;9.38;7.97;;;;;;;33.46;nan;94963.47;4990037;28;20212;-66
2022/08/28 07:55:53;;;;;;;13.85;8.20;;;;;;;33.29;nan;94962.16;4989174;28;20644;-66
2022/08/28 07:58:21;;;;;;;15.65;8.10;;;;;;;33.21;nan;94970.19;4989328;28;21144;-67
2022/08/28 08:00:48;;;;;;;17.55;6.97;;;;;;;32.65;nan;94970.97;4989409;28;20658;-66
2022/08/28 08:03:15;;;;;;;17.02;7.95;;;;;;;31.85;nan;94965.84;4988942;28;20655;-65
2022/08/28 08:05:41;;;;;;;14.15;7.10;;;;;;;31.55;nan;94969.47;4989402;28;20262;-66
2022/08/28 08:08:08;;;;;;;19.15;7.20;;;;;;;31.07;nan;94963.72;4988716;28;21090;-65
2022/08/28 08:10:35;;;;;;;10.55;5.82;;;;;;;31.06;nan;94972.56;4989354;28;20200;-66
2022/08/28 08:13:02;;;;;;;9.57;7.18;;;;;;;31.04;nan;94970.13;4989512;28;20258;-65
2022/08/28 08:15:32;;;;;;;13.70;6.28;;;;;;;30.73;nan;94967.63;4988734;28;20683;-66
2022/08/28 08:17:59;;;;;;;16.27;6.68;;;;;;;30.58;nan;94972.03;4989711;28;20283;-66
2022/08/28 08:20:26;;;;;;;10.10;6.63;;;;;;;30.28;nan;94963.19;4989020;28;20345;-67
2022/08/28 08:22:53;;;;;;;15.43;6.10;;;;;;;30.01;nan;94966.31;4988898;28;20207;-66
2022/08/28 08:25:19;;;;;;;17.35;6.88;;;;;;;30.34;nan;94967.75;4989593;28;20217;-66
2022/08/28 08:27:46;;;;;;;16.58;9.18;;;;;;;30.37;nan;94963.97;4988840;28;20215;-66
2022/08/28 08:30:14;;;;;;;20.98;12.07;;;;;;;30.71;nan;94969.59;4989076;28;20266;-65
2022/08/28 08:32:42;;;;;;;20.20;8.32;;;;;;;30.98;nan;94960.34;4988951;28;20243;-65
2022/08/28 08:35:11;;;;;;;14.07;7.90;;;;;;;31.30;nan;94953.97;4989006;28;20223;-66
2022/08/28 08:37:38;;;;;;;11.23;6.80;;;;;;;31.51;nan;94958.50;4988902;28;20232;-70
2022/08/28 08:40:07;;;;;;;12.35;6.80;;;;;;;31.19;nan;94958.84;4988592;28;20713;-67
2022/08/28 08:42:37;;;;;;;16.77;7.05;;;;;;;31.13;nan;94947.28;4988999;28;20854;-66
2022/08/28 08:45:06;;;;;;;16.55;9.82;;;;;;;31.51;nan;94957.69;4988254;28;20691;-66
2022/08/28 08:47:38;;;;;;;12.80;6.55;;;;;;;31.36;nan;94950.63;4988312;28;20686;-66
2022/08/28 08:50:10;;;;;;;17.60;6.80;;;;;;;31.59;nan;94950.53;4989332;28;20325;-67
2022/08/28 08:52:47;;;;;;;12.43;7.30;;;;;;;31.94;nan;94950.75;4988959;28;20204;-66
2022/08/28 08:55:26;;;;;;;18.67;6.97;;;;;;;32.01;nan;94943.78;4990133;28;20294;-66
2022/08/28 08:58:02;;;;;;;11.15;6.32;;;;;;;31.84;nan;94950.25;4988316;28;20239;-66
2022/08/28 09:00:31;;;;;;;18.48;7.47;;;;;;;31.89;nan;94948.72;4989036;28;20937;-66
2022/08/28 09:03:05;;;;;;;19.05;7.32;;;;;;;32.00;nan;94950.03;4988680;28;20705;-66
2022/08/28 09:05:46;;;;;;;18.63;6.93;;;;;;;32.08;nan;94944.66;4989114;28;20249;-66
2022/08/28 09:08:23;;;;;;;22.85;7.03;;;;;;;32.12;nan;94948.56;4988120;28;20678;-67
2022/08/28 09:11:00;;;;;;;18.95;6.95;;;;;;;32.04;nan;94946.03;4988540;28;20196;-66
2022/08/28 09:13:37;;;;;;;15.85;7.03;;;;;;;32.11;nan;94947.75;4987748;28;20214;-66
2022/08/28 09:16:13;;;;;;;18.00;6.45;;;;;;;31.54;nan;94950.25;4989197;28;20212;-68
2022/08/28 09:18:41;;;;;;;13.55;7.32;;;;;;;30.99;nan;94951.47;4987603;28;20545;-65
2022/08/28 09:21:10;;;;;;;13.82;6.88;;;;;;;30.99;nan;94951.47;4988297;28;20210;-65
2022/08/28 09:23:37;;;;;;;15.38;6.22;;;;;;;30.98;nan;94952.47;4988675;28;20204;-66
2022/08/28 09:26:08;;;;;;;15.15;7.38;;;;;;;31.27;nan;94937.78;4988451;28;20298;-66
2022/08/28 09:28:39;;;;;;;15.75;7.20;;;;;;;31.70;nan;94944.81;4989134;28;20295;-67
2022/08/28 09:31:09;;;;;;;17.52;6.93;;;;;;;32.12;nan;94938.03;4988371;28;20236;-66
2022/08/28 09:33:42;;;;;;;19.38;7.40;;;;;;;32.36;nan;94929.81;4989624;28;20208;-66
2022/08/28 09:36:31;;;;;;;14.85;6.50;;;;;;;32.23;nan;94926.22;4992468;28;20331;-66
2022/08/28 09:39:12;;;;;;;14.52;6.72;;;;;;;32.16;nan;94930.59;4991909;28;20683;-67
2022/08/28 09:44:31;;;;;;;17.10;7.30;;;;;;;32.15;nan;94931.59;4992148;28;20216;-67
2022/08/28 09:46:58;;;;;;;13.65;6.47;;;;;;;32.28;nan;94927.31;4992569;28;20212;-68
2022/08/28 09:49:28;;;;;;;17.88;6.68;;;;;;;32.50;nan;94919.41;4992239;28;20201;-67
2022/08/28 09:52:00;;;;;;;23.00;6.65;;;;;;;32.44;nan;94913.06;4992675;28;20223;-66
2022/08/28 09:54:34;;;;;;;16.45;7.07;;;;;;;32.32;nan;94911.97;4991450;28;20676;-67
2022/08/28 09:57:02;;;;;;;23.55;6.72;;;;;;;32.36;nan;94907.97;4992356;28;20243;-66
2022/08/28 09:59:29;;;;;;;19.05;7.72;;;;;;;32.17;nan;94914.63;4992274;28;21677;-66
2022/08/28 10:02:15;;;;;;;9.77;6.60;;;;;;;32.12;nan;94904.69;4991658;28;20282;-66
2022/08/28 10:04:56;;;;;;;12.90;6.55;;;;;;;31.96;nan;94904.06;4991679;28;20411;-66
2022/08/28 10:07:33;;;;;;;17.05;6.60;;;;;;;31.96;nan;94901.44;4992360;28;20271;-67
2022/08/28 10:10:16;;;;;;;15.25;6.10;;;;;;;32.15;nan;94905.31;4991626;28;20693;-66
2022/08/28 10:12:54;;;;;;;12.55;5.78;;;;;;;32.19;nan;94901.28;4991140;28;20610;-67
2022/08/28 10:15:26;;;;;;;6.75;6.25;;;;;;;32.10;nan;94900.59;4992058;28;20212;-66
2022/08/28 10:18:13;;;;;;;9.65;6.68;;;;;;;32.08;nan;94897.34;4991888;28;20214;-66
2022/08/28 10:20:48;;;;;;;14.02;9.90;;;;;;;32.30;nan;94893.75;4990655;28;20216;-65
2022/08/28 10:23:28;;;;;;;26.08;17.38;;;;;;;32.48;nan;94898.53;4990461;28;20241;-67
2022/08/28 10:26:03;;;;;;;47.03;34.00;;;;;;;32.20;nan;94893.19;4992862;28;20204;-66
2022/08/28 10:28:43;;;;;;;40.17;25.60;;;;;;;32.11;nan;94889.09;4991487;28;20236;-67
2022/08/28 10:31:17;;;;;;;12.50;7.82;;;;;;;32.05;nan;94892.44;4990328;28;20226;-66
2022/08/28 10:33:56;;;;;;;42.67;29.05;;;;;;;32.30;nan;94888.47;4992249;28;20222;-67
2022/08/28 10:36:28;;;;;;;15.98;6.88;;;;;;;32.17;nan;94893.59;4990567;28;20299;-66
2022/08/28 10:39:07;;;;;;;18.23;11.35;;;;;;;32.09;nan;94888.47;4992068;28;20227;-66
2022/08/28 10:41:41;;;;;;;16.33;11.30;;;;;;;32.32;nan;94886.47;4990719;28;20243;-65
2022/08/28 10:44:11;;;;;;;20.55;11.90;;;;;;;32.34;nan;94889.72;4991354;28;20716;-67
2022/08/28 10:46:42;;;;;;;15.15;10.27;;;;;;;32.33;nan;94876.78;4991148;28;20259;-68
2022/08/28 10:49:15;;;;;;;13.52;8.02;;;;;;;32.16;nan;94876.19;4990771;28;20837;-66
2022/08/28 10:51:46;;;;;;;13.25;7.40;;;;;;;32.11;nan;94876.75;4990357;28;20388;-67
2022/08/28 10:54:23;;;;;;;12.43;8.02;;;;;;;32.23;nan;94871.81;4990166;28;20683;-67
2022/08/28 10:56:55;;;;;;;17.02;7.80;;;;;;;32.05;nan;94879.31;4990868;28;20702;-67
2022/08/28 10:59:23;;;;;;;14.07;7.28;;;;;;;32.23;nan;94871.00;4990388;28;20841;-66
2022/08/28 11:01:50;;;;;;;11.95;5.88;;;;;;;32.15;nan;94873.75;4990425;28;20274;-66
2022/08/28 11:04:20;;;;;;;10.68;5.68;;;;;;;32.06;nan;94875.69;4989421;28;20204;-66
2022/08/28 11:06:51;;;;;;;17.80;6.85;;;;;;;32.01;nan;94867.53;4990012;28;20230;-66
2022/08/28 11:09:30;;;;;;;11.20;6.10;;;;;;;31.79;nan;94870.16;4990513;28;20290;-67
2022/08/28 11:12:00;;;;;;;13.80;6.32;;;;;;;31.87;nan;94865.78;4990107;28;20663;-66
2022/08/28 11:14:31;;;;;;;14.30;6.22;;;;;;;32.25;nan;94867.19;4989226;28;20307;-67
2022/08/28 11:17:01;;;;;;;9.50;5.88;;;;;;;32.54;nan;94858.31;4991350;28;21055;-66
2022/08/28 11:19:57;;;;;;;7.75;5.90;;;;;;;32.74;nan;94853.22;4989808;28;20304;-67
2022/08/28 11:22:28;;;;;;;6.93;5.72;;;;;;;32.79;nan;94856.09;4989564;28;21119;-66
2022/08/28 11:25:02;;;;;;;9.77;6.28;;;;;;;33.00;nan;94863.09;4991377;28;20247;-66
2022/08/28 11:27:32;;;;;;;23.38;6.38;;;;;;;33.22;nan;94856.75;4990102;28;20205;-65
2022/08/28 11:30:27;;;;;;;13.23;7.50;;;;;;;33.31;nan;94852.97;4989933;28;20274;-66
2022/08/28 11:33:00;;;;;;;7.03;5.25;;;;;;;33.21;nan;94849.03;4988741;28;20204;-67
2022/08/28 11:35:49;;;;;;;6.75;6.15;;;;;;;32.98;nan;94855.41;4989654;28;20216;-66
2022/08/28 11:38:54;;;;;;;14.77;6.70;;;;;;;32.95;nan;94852.34;4989157;28;21230;-66
2022/08/28 11:41:26;;;;;;;10.43;5.30;;;;;;;32.67;nan;94852.31;4989903;28;20890;-67
2022/08/28 11:44:30;;;;;;;19.25;14.05;;;;;;;32.69;nan;94852.94;4988555;28;20232;-64
2022/08/28 11:47:36;;;;;;;32.63;16.52;;;;;;;32.91;nan;94844.03;4977185;28;20293;-66
2022/08/28 11:50:11;;;;;;;27.40;19.92;;;;;;;32.90;nan;94847.69;4988463;28;20262;-66
2022/08/28 11:53:05;;;;;;;20.80;11.38;;;;;;;32.91;nan;94846.69;4989517;28;20204;-65
2022/08/28 11:55:50;;;;;;;11.15;7.35;;;;;;;32.92;nan;94835.09;4954397;28;20209;-65
2022/08/28 11:58:27;;;;;;;10.07;5.90;;;;;;;32.68;nan;94833.72;4987532;28;20939;-66
2022/08/28 12:01:01;;;;;;;12.15;5.50;;;;;;;32.37;nan;94839.38;4987715;28;20236;-66
2022/08/28 12:03:37;;;;;;;7.50;5.93;;;;;;;32.28;nan;94832.63;4987476;28;20211;-64
2022/08/28 12:06:05;;;;;;;11.35;7.22;;;;;;;32.55;nan;94827.56;4987033;28;20227;-64